createdAt,value
2019-01-16T00:00:26.967Z,18.90
2019-01-16T00:03:03.763Z,19.17
2019-01-16T00:05:37.618Z,18.27
2019-01-16T00:08:14.217Z,19.93
2019-01-16T00:10:58.678Z,19.97
2019-01-16T00:13:26.750Z,19.30
2019-01-16T00:15:54.814Z,19.27
2019-01-16T00:18:31.854Z,19.97
2019-01-16T00:20:59.930Z,19.77
2019-01-16T00:23:45.554Z,18.87
2019-01-16T00:26:13.663Z,18.73
2019-01-16T00:28:50.352Z,20.57
2019-01-16T00:31:18.421Z,19.83
2019-01-16T00:33:46.617Z,21.07
2019-01-16T00:36:26.328Z,19.83
2019-01-16T00:39:10.828Z,19.07
2019-01-16T00:41:58.762Z,18.07
2019-01-16T00:44:40.189Z,18.97
2019-01-16T00:47:39.520Z,17.67
2019-01-16T00:50:38.536Z,19.47
2019-01-16T00:53:37.855Z,18.70
2019-01-16T00:56:21.874Z,19.00
2019-01-16T01:02:39.754Z,19.63
2019-01-16T01:05:38.781Z,19.93
2019-01-16T01:08:20.171Z,18.97
2019-01-16T01:11:19.349Z,19.27
2019-01-16T01:14:18.748Z,18.17
2019-01-16T01:17:17.976Z,19.73
2019-01-16T01:20:20.218Z,19.03
2019-01-16T01:23:04.530Z,19.33
2019-01-16T01:26:23.606Z,19.57
2019-01-16T01:29:04.872Z,17.97
2019-01-16T01:32:03.844Z,19.07
2019-01-16T01:35:26.234Z,17.90
2019-01-16T01:38:10.360Z,19.40
2019-01-16T01:40:54.526Z,19.63
2019-01-16T01:43:53.593Z,18.13
2019-01-16T01:46:34.614Z,16.70
2019-01-16T01:49:35.806Z,16.57
2019-01-16T01:52:35.171Z,17.93
2019-01-16T01:59:06.915Z,16.23
2019-01-16T02:05:43.334Z,16.43
2019-01-16T02:08:42.551Z,16.10
2019-01-16T02:11:23.605Z,15.73
2019-01-16T02:14:25.896Z,15.37
2019-01-16T02:17:10.090Z,16.67
2019-01-16T02:19:51.184Z,15.40
2019-01-16T02:26:03.396Z,13.37
2019-01-16T02:28:47.820Z,15.57
2019-01-16T02:38:53.627Z,13.97
2019-01-16T02:41:43.895Z,15.13
2019-01-16T02:44:25.219Z,15.43
2019-01-16T02:50:58.967Z,15.90
2019-01-16T02:53:57.991Z,15.53
2019-01-16T02:56:38.142Z,16.40
2019-01-16T03:02:26.801Z,16.27
2019-01-16T03:05:10.605Z,16.73
2019-01-16T03:07:54.819Z,16.00
2019-01-16T03:10:41.821Z,16.63
2019-01-16T03:13:23.010Z,17.00
2019-01-16T03:16:06.899Z,17.60
2019-01-16T03:18:48.232Z,16.97
2019-01-16T03:21:32.303Z,17.40
2019-01-16T03:24:17.733Z,18.13
2019-01-16T03:27:02.318Z,17.60
2019-01-16T03:30:03.725Z,16.70
2019-01-16T03:33:05.951Z,17.80
2019-01-16T03:35:53.151Z,17.77
2019-01-16T03:38:39.851Z,18.60
2019-01-16T03:41:21.147Z,17.53
2019-01-16T03:44:02.309Z,17.57
2019-01-16T03:46:46.422Z,16.70
2019-01-16T03:53:22.796Z,17.17
2019-01-16T03:56:03.829Z,16.03
2019-01-16T04:02:21.438Z,16.40
2019-01-16T04:05:05.318Z,17.53
2019-01-16T04:08:04.702Z,17.93
2019-01-16T04:11:03.796Z,17.97
2019-01-16T04:14:08.381Z,18.00
2019-01-16T04:17:07.566Z,16.43
2019-01-16T04:20:06.693Z,17.37
2019-01-16T04:22:47.935Z,17.37
2019-01-16T04:25:47.038Z,18.40
2019-01-16T04:29:09.454Z,18.57
2019-01-16T04:38:32.019Z,17.53
2019-01-16T04:41:13.128Z,18.87
2019-01-16T04:43:54.185Z,16.40
2019-01-16T04:46:58.231Z,17.90
2019-01-16T04:49:57.388Z,18.10
2019-01-16T04:56:03.804Z,18.43
2019-01-16T05:02:30.325Z,17.33
2019-01-16T05:05:14.801Z,16.33
2019-01-16T05:07:58.975Z,18.30
2019-01-16T05:10:58.340Z,18.27
2019-01-16T05:13:42.464Z,17.60
2019-01-16T05:16:23.768Z,18.40
2019-01-16T05:19:25.937Z,17.53
2019-01-16T05:22:25.112Z,17.73
2019-01-16T05:25:09.534Z,17.47
2019-01-16T05:28:09.067Z,17.30
2019-01-16T05:34:18.741Z,16.47
2019-01-16T05:37:03.200Z,16.70
2019-01-16T05:39:50.334Z,16.13
2019-01-16T05:42:34.502Z,16.73
2019-01-16T05:45:33.761Z,17.50
2019-01-16T05:48:56.198Z,17.53
2019-01-16T05:51:43.550Z,15.77
2019-01-16T05:55:02.600Z,16.57
2019-01-16T05:57:43.675Z,15.73
2019-01-16T06:00:28.034Z,16.53
2019-01-16T06:07:00.096Z,10.07
2019-01-16T06:10:06.072Z,16.87
2019-01-16T06:19:59.281Z,16.60
2019-01-16T06:23:05.240Z,18.83
2019-01-16T06:25:49.208Z,17.60
2019-01-16T06:28:48.719Z,18.57
2019-01-16T06:38:16.671Z,18.67
2019-01-16T06:41:00.623Z,17.47
2019-01-16T06:44:20.290Z,20.27
2019-01-16T06:47:19.519Z,19.80
2019-01-16T06:50:18.751Z,18.97
2019-01-16T06:53:17.957Z,20.87
2019-01-16T06:56:17.059Z,19.57
2019-01-16T06:59:01.002Z,20.90
2019-01-16T07:02:02.247Z,20.03
2019-01-16T07:05:04.164Z,21.33
2019-01-16T07:07:48.243Z,22.63
2019-01-16T07:10:32.284Z,22.30
2019-01-16T07:13:31.365Z,21.70
2019-01-16T07:16:36.843Z,23.40
2019-01-16T07:19:17.935Z,22.33
2019-01-16T07:22:21.985Z,22.23
2019-01-16T07:25:40.995Z,21.10
2019-01-16T07:28:25.329Z,22.23
2019-01-16T07:34:40.988Z,21.63
2019-01-16T07:37:42.425Z,19.93
2019-01-16T07:40:41.459Z,19.27
2019-01-16T07:43:25.763Z,19.57
2019-01-16T07:46:09.707Z,17.07
2019-01-16T07:52:36.414Z,14.17
2019-01-16T07:58:54.574Z,17.37
2019-01-16T08:02:14.182Z,17.47
2019-01-16T08:05:13.324Z,16.93
2019-01-16T08:07:57.523Z,17.63
2019-01-16T08:10:56.595Z,17.30
2019-01-16T08:13:55.729Z,15.00
2019-01-16T08:16:39.758Z,18.63
2019-01-16T08:22:48.319Z,17.00
2019-01-16T08:25:29.410Z,19.63
2019-01-16T08:28:28.685Z,18.27
2019-01-16T08:31:12.973Z,16.63
2019-01-16T08:34:12.073Z,19.33
2019-01-16T08:40:36.751Z,17.47
2019-01-16T08:43:35.832Z,18.63
2019-01-16T08:46:35.191Z,17.33
2019-01-16T08:49:34.478Z,18.23
2019-01-16T08:52:15.862Z,18.03
2019-01-16T08:55:15.821Z,18.23
2019-01-16T09:01:51.351Z,14.10
2019-01-16T09:04:50.704Z,14.13
2019-01-16T09:07:49.734Z,17.60
2019-01-16T09:10:31.827Z,16.53
2019-01-16T09:13:12.912Z,16.37
2019-01-16T09:16:32.011Z,14.73
2019-01-16T09:19:36.266Z,16.17
2019-01-16T09:26:29.844Z,14.33
2019-01-16T09:36:21.163Z,12.97
2019-01-16T09:39:08.038Z,12.50
2019-01-16T09:41:52.246Z,12.00
2019-01-16T09:51:59.570Z,11.30
2019-01-16T09:58:37.363Z,10.83
2019-01-16T10:01:18.648Z,10.57
2019-01-16T10:04:05.547Z,11.50
2019-01-16T10:09:56.953Z,10.17
2019-01-16T10:13:16.413Z,10.67
2019-01-16T10:16:00.774Z,12.03
2019-01-16T10:19:00.785Z,8.83
2019-01-16T10:21:44.995Z,10.07
2019-01-16T10:24:26.997Z,11.10
2019-01-16T10:27:14.071Z,9.47
2019-01-16T10:30:18.441Z,8.83
2019-01-16T10:33:22.583Z,9.77
2019-01-16T10:36:27.141Z,9.13
2019-01-16T10:39:09.034Z,8.73
2019-01-16T10:42:08.102Z,7.93
2019-01-16T10:44:49.608Z,9.27
2019-01-16T10:47:48.994Z,7.07
2019-01-16T10:50:30.267Z,7.73
2019-01-16T10:53:14.553Z,7.87
2019-01-16T10:59:51.279Z,6.80
2019-01-16T11:02:35.598Z,5.97
2019-01-16T11:05:54.799Z,6.60
2019-01-16T11:12:04.203Z,5.00
2019-01-16T11:15:03.253Z,5.50
2019-01-16T11:18:02.616Z,5.17
2019-01-16T11:20:47.019Z,4.97
2019-01-16T11:23:28.344Z,4.93
2019-01-16T11:26:15.412Z,5.03
2019-01-16T11:29:14.638Z,4.60
2019-01-16T11:32:13.833Z,5.47
2019-01-16T11:35:16.211Z,5.03
2019-01-16T11:41:33.827Z,4.60
2019-01-16T11:44:33.375Z,4.73
2019-01-16T11:47:35.624Z,4.50
2019-01-16T11:50:19.905Z,4.50
2019-01-16T11:53:21.131Z,4.37
2019-01-16T11:56:08.072Z,5.10
2019-01-16T11:59:07.167Z,5.03
2019-01-16T12:02:06.493Z,4.77
2019-01-16T12:04:50.606Z,5.57
2019-01-16T12:11:23.200Z,4.83
2019-01-16T12:14:24.690Z,4.40
2019-01-16T12:17:29.784Z,5.70
2019-01-16T12:20:49.373Z,5.67
2019-01-16T12:23:48.629Z,5.77
2019-01-16T12:26:47.659Z,5.93
2019-01-16T12:30:10.102Z,6.13
2019-01-16T12:33:09.217Z,6.63
2019-01-16T12:39:34.937Z,6.40
2019-01-16T12:45:26.484Z,6.53
2019-01-16T12:48:10.679Z,7.17
2019-01-16T12:50:54.467Z,5.50
2019-01-16T12:53:53.540Z,7.73
2019-01-16T12:56:38.070Z,8.20
2019-01-16T12:59:57.293Z,5.87
2019-01-16T13:03:19.942Z,7.17
2019-01-16T13:06:18.986Z,8.60
2019-01-16T13:09:18.507Z,7.37
2019-01-16T13:12:02.564Z,8.60
2019-01-16T13:15:02.066Z,7.40
2019-01-16T13:18:01.227Z,9.63
2019-01-16T13:20:42.322Z,10.27
2019-01-16T13:23:26.461Z,10.93
2019-01-16T13:29:59.130Z,9.30
2019-01-16T13:32:40.594Z,9.97
2019-01-16T13:35:41.153Z,10.03
2019-01-16T13:38:43.079Z,8.73
2019-01-16T13:41:24.335Z,9.70
2019-01-16T13:44:08.564Z,9.93
2019-01-16T13:46:49.667Z,10.03
2019-01-16T13:49:30.676Z,9.77
2019-01-16T13:52:18.873Z,8.63
2019-01-16T13:54:58.200Z,9.83
2019-01-16T13:58:05.161Z,8.03
2019-01-16T14:01:24.622Z,8.73
2019-01-16T14:04:26.962Z,8.70
2019-01-16T14:07:31.309Z,8.40
2019-01-16T14:10:15.476Z,8.73
2019-01-16T14:12:57.311Z,9.10
2019-01-16T14:18:49.218Z,8.23
2019-01-16T14:21:33.830Z,8.60
2019-01-16T14:28:02.048Z,9.00
2019-01-16T14:38:02.187Z,6.90
2019-01-16T14:40:49.720Z,8.70
2019-01-16T14:43:48.889Z,8.40
2019-01-16T14:46:32.885Z,7.10
2019-01-16T14:49:32.312Z,7.80
2019-01-16T14:52:31.429Z,5.93
2019-01-16T14:58:39.093Z,6.90
2019-01-16T15:04:45.671Z,5.67
2019-01-16T15:10:59.422Z,7.20
2019-01-16T15:13:43.749Z,5.93
2019-01-16T15:16:28.586Z,6.13
2019-01-16T15:19:28.122Z,6.53
2019-01-16T15:22:47.574Z,5.53
2019-01-16T15:25:47.390Z,6.50
2019-01-16T15:28:49.781Z,6.23
2019-01-16T15:31:52.024Z,6.03
2019-01-16T15:35:11.215Z,6.77
2019-01-16T15:38:13.256Z,5.33
2019-01-16T15:48:08.403Z,7.03
2019-01-16T15:51:12.802Z,7.57
2019-01-16T15:53:57.023Z,8.57
2019-01-16T15:56:40.871Z,8.97
2019-01-16T16:03:19.890Z,7.70
2019-01-16T16:06:38.888Z,9.83
2019-01-16T16:09:47.242Z,11.70
2019-01-16T16:12:28.601Z,15.50
2019-01-16T16:18:29.070Z,11.33
2019-01-16T16:21:13.439Z,10.47
2019-01-16T16:24:15.675Z,11.20
2019-01-16T16:27:34.961Z,9.73
2019-01-16T16:30:57.271Z,9.73
2019-01-16T16:33:56.368Z,10.73
2019-01-16T16:36:40.477Z,10.57
2019-01-16T16:39:41.868Z,12.37
2019-01-16T16:42:40.903Z,12.23
2019-01-16T16:46:03.239Z,10.13
2019-01-16T16:49:07.537Z,12.37
2019-01-16T16:52:26.733Z,10.70
2019-01-16T16:55:49.935Z,11.67
2019-01-16T16:58:36.908Z,9.07
2019-01-16T17:01:38.299Z,11.27
2019-01-16T17:04:57.561Z,10.43
2019-01-16T17:07:41.963Z,12.87
2019-01-16T17:10:23.174Z,12.47
2019-01-16T17:13:07.386Z,11.20
2019-01-16T17:16:26.523Z,7.63
2019-01-16T17:19:10.390Z,11.60
2019-01-16T17:21:53.704Z,8.90
2019-01-16T17:24:22.049Z,11.77
2019-01-16T17:26:53.011Z,11.07
2019-01-16T17:29:45.375Z,9.13
2019-01-16T17:32:22.677Z,10.53
2019-01-16T17:34:50.779Z,10.47
2019-01-16T17:37:21.653Z,11.50
2019-01-16T17:40:04.343Z,10.53
2019-01-16T17:42:48.775Z,11.10
2019-01-16T17:45:29.385Z,9.17
2019-01-16T17:48:18.014Z,10.27
2019-01-16T17:51:02.517Z,4.23
2019-01-16T17:53:50.106Z,8.70
2019-01-16T17:56:24.462Z,9.10
2019-01-16T17:59:01.690Z,7.43
2019-01-16T18:01:44.760Z,8.07
2019-01-16T18:04:12.917Z,8.23
2019-01-16T18:06:43.839Z,5.50
2019-01-16T18:09:30.569Z,9.30
2019-01-16T18:12:14.847Z,8.17
2019-01-16T18:14:42.975Z,8.00
2019-01-16T18:17:25.694Z,6.93
2019-01-16T18:20:12.856Z,7.90
2019-01-16T18:22:49.735Z,8.70
2019-01-16T18:25:20.544Z,7.73
2019-01-16T18:27:54.554Z,8.17
2019-01-16T18:30:25.666Z,8.10
2019-01-16T18:32:59.564Z,6.53
2019-01-16T18:35:30.542Z,8.13
2019-01-16T18:38:04.231Z,8.10
2019-01-16T18:40:47.647Z,7.93
2019-01-16T18:43:18.520Z,9.00
2019-01-16T18:45:46.628Z,5.40
2019-01-16T18:48:17.211Z,8.60
2019-01-16T18:50:47.964Z,8.43
2019-01-16T18:53:27.977Z,8.77
2019-01-16T18:55:58.850Z,7.63
2019-01-16T18:58:35.827Z,8.40
2019-01-16T19:01:18.899Z,8.07
2019-01-16T19:03:52.792Z,8.77
2019-01-16T19:06:39.335Z,7.70
2019-01-16T19:09:08.288Z,9.10
2019-01-16T19:11:51.156Z,9.53
2019-01-16T19:14:28.025Z,8.60
2019-01-16T19:17:23.819Z,7.87
2019-01-16T19:19:57.909Z,5.03
2019-01-16T19:22:26.123Z,8.47
2019-01-16T19:25:06.145Z,8.47
2019-01-16T19:27:34.378Z,8.67
2019-01-16T19:30:02.470Z,9.17
2019-01-16T19:32:54.568Z,8.60
2019-01-16T19:35:25.729Z,9.87
2019-01-16T19:37:56.629Z,9.83
2019-01-16T19:40:27.604Z,8.27
2019-01-16T19:43:12.218Z,10.37
2019-01-16T19:45:57.042Z,7.37
2019-01-16T19:48:41.577Z,9.80
2019-01-16T19:51:24.938Z,9.27
2019-01-16T19:53:56.443Z,8.93
2019-01-16T19:56:39.203Z,9.23
2019-01-16T19:59:07.563Z,9.73
2019-01-16T20:01:55.053Z,10.60
2019-01-16T20:04:35.168Z,10.90
2019-01-16T20:07:21.683Z,9.33
2019-01-16T20:10:06.430Z,10.37
2019-01-16T20:12:37.375Z,11.20
2019-01-16T20:15:09.644Z,10.13
2019-01-16T20:17:57.100Z,10.80
2019-01-16T20:20:49.598Z,11.90
2019-01-16T20:23:34.114Z,11.30
2019-01-16T20:26:10.903Z,11.03
2019-01-16T20:28:47.153Z,11.03
2019-01-16T20:31:20.649Z,11.40
2019-01-16T20:33:51.347Z,12.20
2019-01-16T20:36:22.379Z,12.37
2019-01-16T20:38:50.560Z,12.00
2019-01-16T20:41:35.095Z,10.17
2019-01-16T20:44:37.742Z,12.73
2019-01-16T20:47:09.031Z,10.53
2019-01-16T20:49:53.594Z,11.73
2019-01-16T20:52:24.685Z,11.97
2019-01-16T20:55:26.850Z,9.00
2019-01-16T20:58:14.403Z,12.37
2019-01-16T21:00:58.806Z,11.73
2019-01-16T21:03:38.844Z,12.50
2019-01-16T21:06:21.650Z,13.10
2019-01-16T21:08:52.769Z,14.10
2019-01-16T21:11:37.171Z,14.60
2019-01-16T21:14:05.433Z,14.83
2019-01-16T21:16:42.548Z,14.37
2019-01-16T21:19:32.096Z,13.70
2019-01-16T21:22:00.288Z,15.60
2019-01-16T21:24:31.391Z,13.73
2019-01-16T21:27:02.661Z,14.47
2019-01-16T21:29:48.544Z,16.53
2019-01-16T21:32:35.158Z,15.37
2019-01-16T21:35:03.407Z,16.50
2019-01-16T21:37:31.556Z,15.87
2019-01-16T21:40:05.811Z,12.20
2019-01-16T21:42:33.911Z,15.43
2019-01-16T21:45:10.991Z,12.90
2019-01-16T21:47:57.064Z,15.17
2019-01-16T21:50:25.432Z,15.07
2019-01-16T21:53:21.047Z,15.83
2019-01-16T21:55:55.063Z,11.77
2019-01-16T21:58:26.393Z,15.30
2019-01-16T22:01:03.245Z,17.03
2019-01-16T22:03:43.584Z,15.97
2019-01-16T22:06:11.840Z,15.70
2019-01-16T22:08:51.758Z,16.13
2019-01-16T22:11:28.613Z,14.87
2019-01-16T22:14:31.906Z,14.60
2019-01-16T22:17:06.027Z,15.60
2019-01-16T22:19:42.774Z,15.30
2019-01-16T22:22:13.740Z,15.93
2019-01-16T22:24:58.252Z,15.77
2019-01-16T22:27:32.438Z,11.63
2019-01-16T22:30:12.146Z,18.00
2019-01-16T22:32:43.254Z,16.67
2019-01-16T22:35:17.332Z,17.03
2019-01-16T22:37:45.477Z,19.93
2019-01-16T22:40:19.534Z,19.20
2019-01-16T22:43:22.729Z,18.90
2019-01-16T22:45:59.351Z,18.07
2019-01-16T22:48:36.415Z,18.90
2019-01-16T22:51:07.448Z,17.70
2019-01-16T22:53:43.429Z,21.40
2019-01-16T22:56:26.038Z,20.30
2019-01-16T22:59:13.429Z,19.20
2019-01-16T23:01:58.240Z,20.07
2019-01-16T23:04:26.397Z,23.00
2019-01-16T23:07:03.429Z,24.03
2019-01-16T23:09:34.400Z,19.73
2019-01-16T23:12:02.510Z,25.30
2019-01-16T23:14:36.255Z,22.80
2019-01-16T23:17:07.049Z,26.87
2019-01-16T23:19:35.328Z,27.97
2019-01-16T23:22:15.088Z,27.83
2019-01-16T23:24:43.319Z,27.00
2019-01-16T23:27:11.423Z,26.57
2019-01-16T23:30:03.753Z,27.63
2019-01-16T23:32:31.829Z,25.47
2019-01-16T23:35:17.553Z,27.10
2019-01-16T23:38:00.551Z,26.40
2019-01-16T23:40:45.024Z,25.73
2019-01-16T23:43:18.668Z,14.40
2019-01-16T23:45:58.325Z,24.87
2019-01-16T23:48:28.947Z,29.33
2019-01-16T23:51:02.559Z,28.97
2019-01-16T23:53:47.202Z,31.00
2019-01-16T23:56:18.034Z,28.60
2019-01-16T23:58:49.005Z,29.07
